Michael S — WDE9794 — position and weather

sailwx.info

Track history (hours):
 
Tides and Currents Weather Stations Pressure Air Temp Water Temp Dewpoint Dewpoint Depression Visibility Wind Speed Wind Dir Waves Ship Positions

Michael S

More information available from US FCC via Universal Licensing System and Coast Guard Vessel Documentation Center.

Last reported at 2014-Aug-30 09:20 UTC. Time now 2014-Aug-30 18:35 UTC.
Position N 29°56' W 090°10'.

Length 33 m; draft 3 m.

Type: Towing. MMSI: 367413700.

Date/timePositionNaut miles runAvg speedWind from/ knotsBaromVisibWave heightAir tempDewpointWater temp
2014-Aug-30 09:20N 29°56' W 090°10'7 9.1
2014-Aug-30 08:33N 29°57' W 090°19'3 2.0
2014-Aug-30 07:04N 29°58' W 090°16'5 5.9
2014-Aug-30 06:11N 29°57' W 090°10'  
2014-Aug-22 12:03N 29°56' W 089°59'2 3.3
2014-Aug-22 11:33N 29°57' W 090°01'5 0.7
2014-Aug-22 03:33N 29°54' W 090°06'4 0.9
2014-Aug-21 23:19N 29°57' W 090°09'7 8.6
2014-Aug-21 22:32N 29°58' W 090°16'6 0.6
2014-Aug-21 12:30N 29°57' W 090°23'0 0.0
2014-Aug-21 11:33N 29°57' W 090°23'0 0.0
2014-Aug-21 10:33N 29°57' W 090°23'0 0.0
2014-Aug-21 09:33N 29°57' W 090°23'0 0.0
2014-Aug-21 08:33N 29°57' W 090°23'0 0.0
2014-Aug-21 07:27N 29°57' W 090°23'0 0.0
2014-Aug-21 06:33N 29°57' W 090°23'0 0.0
2014-Aug-21 05:30N 29°57' W 090°23'0 0.0
2014-Aug-21 04:33N 29°57' W 090°23'0 0.0
2014-Aug-21 03:33N 29°57' W 090°23'0 0.0
2014-Aug-21 02:33N 29°57' W 090°23'0 0.0
2014-Aug-21 01:30N 29°57' W 090°23'0 0.0
2014-Aug-21 00:27N 29°57' W 090°23'0 0.0
2014-Aug-20 23:33N 29°57' W 090°23'6 5.9
2014-Aug-20 22:33N 29°58' W 090°16'19 2.1
2014-Aug-20 13:26N 29°39' W 090°19'4 4.3
2014-Aug-20 12:27N 29°35' W 090°22'2 2.5
2014-Aug-20 11:33N 29°33' W 090°24'2 1.6
2014-Aug-20 10:31N 29°33' W 090°25'0 0.0
2014-Aug-20 09:31N 29°33' W 090°25'  
Track history (hours):
 
Tides and Currents Weather Stations Pressure Air Temp Water Temp Dewpoint Dewpoint Depression Visibility Wind Speed Wind Dir Waves Ship Positions

Michael S

More information available from US FCC via Universal Licensing System and Coast Guard Vessel Documentation Center.

Last reported at 2014-Aug-30 09:20 UTC. Time now 2014-Aug-30 18:35 UTC.
Position N 29°56' W 090°10'.

Length 33 m; draft 3 m.

Type: Towing. MMSI: 367413700.

Date/timePositionNaut miles runAvg speedWind from/ knotsBaromVisibWave heightAir tempDewpointWater temp
2014-Aug-30 09:20N 29°56' W 090°10'7 9.1
2014-Aug-30 08:33N 29°57' W 090°19'3 2.0
2014-Aug-30 07:04N 29°58' W 090°16'5 5.9
2014-Aug-30 06:11N 29°57' W 090°10'  
2014-Aug-22 12:03N 29°56' W 089°59'2 3.3
2014-Aug-22 11:33N 29°57' W 090°01'5 0.7
2014-Aug-22 03:33N 29°54' W 090°06'4 0.9
2014-Aug-21 23:19N 29°57' W 090°09'7 8.6
2014-Aug-21 22:32N 29°58' W 090°16'6 0.6
2014-Aug-21 12:30N 29°57' W 090°23'0 0.0
2014-Aug-21 11:33N 29°57' W 090°23'0 0.0
2014-Aug-21 10:33N 29°57' W 090°23'0 0.0
2014-Aug-21 09:33N 29°57' W 090°23'0 0.0
2014-Aug-21 08:33N 29°57' W 090°23'0 0.0
2014-Aug-21 07:27N 29°57' W 090°23'0 0.0
2014-Aug-21 06:33N 29°57' W 090°23'0 0.0
2014-Aug-21 05:30N 29°57' W 090°23'0 0.0
2014-Aug-21 04:33N 29°57' W 090°23'0 0.0
2014-Aug-21 03:33N 29°57' W 090°23'0 0.0
2014-Aug-21 02:33N 29°57' W 090°23'0 0.0
2014-Aug-21 01:30N 29°57' W 090°23'0 0.0
2014-Aug-21 00:27N 29°57' W 090°23'0 0.0
2014-Aug-20 23:33N 29°57' W 090°23'6 5.9
2014-Aug-20 22:33N 29°58' W 090°16'19 2.1
2014-Aug-20 13:26N 29°39' W 090°19'4 4.3
2014-Aug-20 12:27N 29°35' W 090°22'2 2.5
2014-Aug-20 11:33N 29°33' W 090°24'2 1.6
2014-Aug-20 10:31N 29°33' W 090°25'0 0.0
2014-Aug-20 09:31N 29°33' W 090°25'  

Dump ship's entire track history